Time;durP1;ratioP1;P1;durP2;ratioP2;P2;SDS_P1;SDS_P2;PMS_P1;PMS_P2;Temp;Humidity;BMP_temperature;BMP_pressure;BME280_temperature;BME280_humidity;BME280_pressure;Samples;Min_cycle;Max_cycle;Signal;HPM_P1;HPM_P2
2023/09/16 04:04:56;;;;;;;0.30;0.20;;;14.80;99.90;;;;;;6120170;23;20446;-88
2023/09/16 04:07:22;;;;;;;0.30;0.30;;;14.80;99.90;;;;;;4903052;29;20482;-66
2023/09/16 04:09:48;;;;;;;0.30;0.20;;;14.80;99.90;;;;;;4901115;29;20928;-65
2023/09/16 04:12:14;;;;;;;0.30;0.20;;;14.80;99.90;;;;;;4901005;29;20820;-65
2023/09/16 04:14:40;;;;;;;0.30;0.20;;;14.80;99.90;;;;;;4898958;29;20554;-66
2023/09/16 04:17:05;;;;;;;0.30;0.30;;;14.80;99.90;;;;;;4915431;29;20190;-65
2023/09/16 04:19:31;;;;;;;0.30;0.20;;;14.80;99.90;;;;;;4901405;29;20262;-65
2023/09/16 04:21:57;;;;;;;0.33;0.33;;;14.80;99.90;;;;;;4900926;29;20175;-66
2023/09/16 04:24:22;;;;;;;0.50;0.50;;;14.80;99.90;;;;;;4900279;29;20202;-65
2023/09/16 04:26:48;;;;;;;0.70;0.50;;;14.80;99.90;;;;;;4900825;29;20910;-66
2023/09/16 04:29:13;;;;;;;0.90;0.63;;;14.80;99.90;;;;;;4899686;29;20201;-66
2023/09/16 04:31:39;;;;;;;0.30;0.30;;;14.80;99.90;;;;;;4908527;29;20192;-66
2023/09/16 04:34:04;;;;;;;0.30;0.20;;;14.80;99.90;;;;;;4918552;29;20339;-65
2023/09/16 04:36:30;;;;;;;0.30;0.30;;;14.80;99.90;;;;;;4918364;29;20198;-67
2023/09/16 04:38:57;;;;;;;0.30;0.20;;;14.70;99.90;;;;;;4919198;29;20188;-66
2023/09/16 04:41:23;;;;;;;0.30;0.20;;;14.70;99.90;;;;;;4919461;29;20260;-67
2023/09/16 04:43:49;;;;;;;0.30;0.30;;;14.80;99.90;;;;;;4902069;29;20522;-67
2023/09/16 04:46:18;;;;;;;0.30;0.20;;;14.80;99.90;;;;;;4900068;29;20518;-66
2023/09/16 04:48:45;;;;;;;0.30;0.20;;;14.90;99.90;;;;;;4900157;29;20463;-67
2023/09/16 04:51:10;;;;;;;0.30;0.30;;;14.90;99.90;;;;;;4900137;29;20505;-67
2023/09/16 04:53:36;;;;;;;0.67;0.67;;;14.80;99.90;;;;;;4900291;29;20498;-67
2023/09/16 04:56:05;;;;;;;0.30;0.30;;;14.80;99.90;;;;;;4899720;29;20292;-67
2023/09/16 04:58:31;;;;;;;0.50;0.50;;;14.70;99.90;;;;;;4899971;29;20217;-66
2023/09/16 05:00:59;;;;;;;0.30;0.30;;;14.70;99.90;;;;;;4899578;29;20455;-67
2023/09/16 05:03:25;;;;;;;0.30;0.30;;;14.70;99.90;;;;;;4898914;29;20423;-67
2023/09/16 05:05:52;;;;;;;0.30;0.30;;;14.70;99.90;;;;;;4899537;29;20495;-67
2023/09/16 05:08:18;;;;;;;0.30;0.30;;;14.70;99.90;;;;;;4914572;29;20190;-66
2023/09/16 05:10:44;;;;;;;0.30;0.30;;;14.70;99.90;;;;;;4900041;29;20417;-66
2023/09/16 05:13:09;;;;;;;0.30;0.30;;;14.70;99.90;;;;;;4899746;29;20427;-67
2023/09/16 05:15:35;;;;;;;0.40;0.20;;;14.70;99.90;;;;;;4898466;29;20439;-74
2023/09/16 05:18:00;;;;;;;0.30;0.20;;;14.70;99.90;;;;;;4899963;29;20282;-60
2023/09/16 05:20:26;;;;;;;0.30;0.20;;;14.70;99.90;;;;;;4899742;29;20210;-61
2023/09/16 05:22:52;;;;;;;0.30;0.30;;;14.70;99.90;;;;;;4899756;29;20167;-72
2023/09/16 05:25:18;;;;;;;0.30;0.30;;;14.70;99.90;;;;;;4899291;29;20438;-72
2023/09/16 05:27:43;;;;;;;0.30;0.20;;;14.70;99.90;;;;;;4899487;29;20712;-72
2023/09/16 05:30:10;;;;;;;0.30;0.20;;;14.70;99.90;;;;;;4898370;29;20575;-72
2023/09/16 05:32:35;;;;;;;0.30;0.20;;;14.70;99.90;;;;;;4899770;29;20171;-61
2023/09/16 05:35:01;;;;;;;0.30;0.30;;;14.80;99.90;;;;;;4898511;29;20522;-61
2023/09/16 05:37:27;;;;;;;0.30;0.20;;;14.90;99.90;;;;;;4899416;29;20530;-60
2023/09/16 05:39:52;;;;;;;0.30;0.30;;;14.80;99.90;;;;;;4898792;29;20179;-60
2023/09/16 05:42:18;;;;;;;0.30;0.30;;;14.90;99.90;;;;;;4898031;29;20415;-61
2023/09/16 05:44:44;;;;;;;0.30;0.20;;;14.90;99.90;;;;;;4898836;29;20282;-61
2023/09/16 05:47:09;;;;;;;0.30;0.27;;;15.00;99.90;;;;;;4899216;29;20197;-62
2023/09/16 05:49:35;;;;;;;0.30;0.30;;;15.00;99.90;;;;;;4899056;29;20190;-61
2023/09/16 05:52:00;;;;;;;0.30;0.20;;;15.10;99.90;;;;;;4899164;29;20205;-63
2023/09/16 05:54:26;;;;;;;0.77;0.77;;;15.10;99.90;;;;;;4897946;29;20572;-61
2023/09/16 05:56:52;;;;;;;0.37;0.37;;;15.20;99.90;;;;;;4898880;29;20649;-61
2023/09/16 05:59:19;;;;;;;0.30;0.30;;;15.40;99.90;;;;;;4899058;29;20430;-62
2023/09/16 06:01:44;;;;;;;0.30;0.30;;;15.60;99.90;;;;;;4899071;29;20424;-62
2023/09/16 06:04:10;;;;;;;0.30;0.30;;;15.70;99.90;;;;;;4898229;29;20941;-62
2023/09/16 06:06:36;;;;;;;0.30;0.30;;;15.80;99.90;;;;;;4898371;29;20302;-62
2023/09/16 06:09:03;;;;;;;0.30;0.30;;;16.00;99.90;;;;;;4899008;29;20187;-62
2023/09/16 06:11:29;;;;;;;0.30;0.30;;;16.10;99.90;;;;;;4898931;29;20427;-62
2023/09/16 06:13:55;;;;;;;0.30;0.30;;;16.10;99.90;;;;;;4898083;29;20424;-62
2023/09/16 06:16:21;;;;;;;0.30;0.20;;;16.20;99.90;;;;;;4898643;29;20428;-62
2023/09/16 06:18:46;;;;;;;0.30;0.30;;;16.40;99.90;;;;;;4898568;29;20505;-62
2023/09/16 06:21:13;;;;;;;1.83;0.97;;;16.40;99.90;;;;;;4898763;29;20179;-62
2023/09/16 06:23:38;;;;;;;0.30;0.30;;;16.60;99.90;;;;;;4898541;29;20180;-62
2023/09/16 06:26:04;;;;;;;0.30;0.20;;;16.70;99.90;;;;;;4898284;29;20523;-62
2023/09/16 06:28:30;;;;;;;0.30;0.30;;;16.80;99.90;;;;;;4898650;29;20169;-62
2023/09/16 06:30:55;;;;;;;0.30;0.30;;;17.00;99.90;;;;;;4899056;29;20502;-62
2023/09/16 06:33:21;;;;;;;0.30;0.20;;;17.20;99.90;;;;;;4898085;29;20545;-62
2023/09/16 06:35:46;;;;;;;0.50;0.47;;;17.40;99.90;;;;;;4897786;29;20230;-61
2023/09/16 06:38:12;;;;;;;0.30;0.20;;;17.60;99.90;;;;;;4898440;29;20701;-61
2023/09/16 06:40:38;;;;;;;0.30;0.20;;;17.70;99.90;;;;;;4898598;29;20196;-62
2023/09/16 06:43:04;;;;;;;0.30;0.30;;;17.80;99.90;;;;;;4898423;29;20529;-62
2023/09/16 06:45:29;;;;;;;0.40;0.30;;;17.90;99.90;;;;;;4897905;29;20433;-62
2023/09/16 06:47:56;;;;;;;0.30;0.20;;;18.00;99.90;;;;;;4898411;29;20179;-62
2023/09/16 06:50:21;;;;;;;0.30;0.20;;;18.10;99.90;;;;;;4898341;29;20202;-62
2023/09/16 06:52:47;;;;;;;0.30;0.30;;;18.20;99.90;;;;;;4898469;29;20528;-62
2023/09/16 06:55:13;;;;;;;0.30;0.30;;;18.30;99.90;;;;;;4897812;29;20219;-60
2023/09/16 06:57:38;;;;;;;0.30;0.20;;;18.40;99.90;;;;;;4898118;29;20167;-62
2023/09/16 07:00:04;;;;;;;0.30;0.20;;;18.50;99.90;;;;;;4898381;29;20202;-62
2023/09/16 07:02:30;;;;;;;0.30;0.20;;;18.70;99.90;;;;;;4898095;29;20507;-61
2023/09/16 07:04:56;;;;;;;0.30;0.20;;;18.80;99.90;;;;;;4897997;29;20445;-62
2023/09/16 07:07:23;;;;;;;0.30;0.30;;;19.10;99.90;;;;;;4898305;29;20522;-62
2023/09/16 07:09:53;;;;;;;0.43;0.43;;;19.40;99.90;;;;;;4898264;29;20186;-62
2023/09/16 07:12:18;;;;;;;0.30;0.20;;;19.50;99.90;;;;;;4898151;29;20893;-63
2023/09/16 07:14:44;;;;;;;0.30;0.20;;;19.60;99.90;;;;;;4897637;29;20498;-63
2023/09/16 07:17:09;;;;;;;0.33;0.30;;;19.60;99.90;;;;;;4897775;29;20183;-62
2023/09/16 07:19:35;;;;;;;0.30;0.20;;;19.60;99.90;;;;;;4898216;29;20171;-62
2023/09/16 07:22:01;;;;;;;0.30;0.20;;;19.70;99.90;;;;;;4898037;29;20311;-62
2023/09/16 07:24:27;;;;;;;0.77;0.77;;;19.80;99.90;;;;;;4897628;29;20702;-62
2023/09/16 07:26:52;;;;;;;0.30;0.30;;;19.90;99.90;;;;;;4899830;29;20386;-61
2023/09/16 07:29:19;;;;;;;0.30;0.20;;;20.20;99.90;;;;;;4901688;29;20170;-62
2023/09/16 07:31:45;;;;;;;0.30;0.30;;;20.40;99.90;;;;;;4901588;29;20177;-62
2023/09/16 07:34:10;;;;;;;0.30;0.20;;;20.70;99.90;;;;;;4901015;29;20818;-63
2023/09/16 07:36:36;;;;;;;0.30;0.20;;;20.90;99.90;;;;;;4901489;29;20760;-62
2023/09/16 07:39:02;;;;;;;0.50;0.40;;;21.00;99.90;;;;;;4901673;29;20258;-63
2023/09/16 07:41:27;;;;;;;0.30;0.20;;;21.10;99.90;;;;;;4901570;29;20640;-61
2023/09/16 07:43:53;;;;;;;0.30;0.20;;;21.10;99.90;;;;;;4901004;29;20175;-62
2023/09/16 07:46:18;;;;;;;0.30;0.20;;;21.30;99.90;;;;;;4901593;29;20238;-61
2023/09/16 07:48:44;;;;;;;0.50;0.50;;;21.50;99.90;;;;;;4901163;29;20175;-62
2023/09/16 07:51:10;;;;;;;0.30;0.30;;;21.90;99.90;;;;;;4901191;29;20179;-62
2023/09/16 07:53:35;;;;;;;0.30;0.20;;;22.50;99.90;;;;;;4901117;29;20402;-63
2023/09/16 07:56:01;;;;;;;0.30;0.20;;;23.30;99.90;;;;;;4900726;29;20568;-63
2023/09/16 07:58:27;;;;;;;0.30;0.27;;;24.20;99.90;;;;;;4901176;29;20183;-63
2023/09/16 08:00:53;;;;;;;0.30;0.27;;;25.10;99.90;;;;;;4901060;29;20270;-63
2023/09/16 08:03:19;;;;;;;0.57;0.50;;;26.00;99.90;;;;;;4900776;29;20586;-62
2023/09/16 08:05:44;;;;;;;0.30;0.20;;;27.10;99.90;;;;;;4900604;29;20445;-62
2023/09/16 08:08:10;;;;;;;0.30;0.30;;;28.30;99.40;;;;;;4901532;29;20569;-63
2023/09/16 08:10:36;;;;;;;0.30;0.30;;;29.30;97.50;;;;;;4901084;29;20179;-63
2023/09/16 08:13:01;;;;;;;0.40;0.40;;;30.10;95.90;;;;;;4901115;29;20237;-63
2023/09/16 08:15:27;;;;;;;0.43;0.40;;;31.00;94.80;;;;;;4900408;29;20210;-63
2023/09/16 08:17:54;;;;;;;0.57;0.57;;;32.00;93.20;;;;;;4900533;29;20183;-63
2023/09/16 08:20:20;;;;;;;0.40;0.40;;;32.90;91.20;;;;;;4900848;29;20203;-62
2023/09/16 08:22:47;;;;;;;0.60;0.53;;;33.50;89.00;;;;;;4900505;29;20483;-64
2023/09/16 08:25:12;;;;;;;0.73;0.43;;;34.00;86.20;;;;;;4899972;29;20443;-62
2023/09/16 08:27:39;;;;;;;0.40;0.40;;;34.40;85.20;;;;;;4900725;29;20486;-61
2023/09/16 08:30:05;;;;;;;0.30;0.30;;;34.90;83.60;;;;;;4899898;29;20193;-61
2023/09/16 08:32:31;;;;;;;0.60;0.60;;;35.20;82.20;;;;;;4900643;29;20419;-61
2023/09/16 08:34:57;;;;;;;0.30;0.30;;;35.20;78.90;;;;;;4900051;29;20815;-62
2023/09/16 08:37:22;;;;;;;0.40;0.40;;;35.00;79.40;;;;;;4900167;29;20171;-62
2023/09/16 08:39:48;;;;;;;0.67;0.60;;;34.80;80.90;;;;;;4900074;29;20565;-63
2023/09/16 08:42:20;;;;;;;0.57;0.57;;;34.60;80.50;;;;;;4900398;29;20190;-62
2023/09/16 08:44:50;;;;;;;0.30;0.30;;;34.80;81.10;;;;;;4899938;29;20191;-61
2023/09/16 08:47:27;;;;;;;1.13;0.90;;;35.00;78.90;;;;;;4900244;29;20514;-61
2023/09/16 08:49:56;;;;;;;0.40;0.40;;;35.20;80.20;;;;;;4900497;29;20521;-62
2023/09/16 08:52:26;;;;;;;0.40;0.40;;;35.50;78.80;;;;;;4900299;29;20868;-64
2023/09/16 08:54:54;;;;;;;0.33;0.33;;;35.90;77.60;;;;;;4899552;29;20478;-62
2023/09/16 08:57:20;;;;;;;0.47;0.47;;;36.30;76.80;;;;;;4900172;29;20455;-63
2023/09/16 08:59:46;;;;;;;0.93;0.93;;;36.60;74.70;;;;;;4900177;29;20423;-62
2023/09/16 09:02:13;;;;;;;0.60;0.60;;;36.50;74.50;;;;;;4900082;29;20206;-62
2023/09/16 09:04:39;;;;;;;0.60;0.60;;;36.50;74.30;;;;;;4899604;29;20419;-62
2023/09/16 09:07:06;;;;;;;0.60;0.60;;;36.60;74.90;;;;;;4899942;29;20440;-62
2023/09/16 09:09:32;;;;;;;0.77;0.77;;;36.70;73.10;;;;;;4914041;29;20435;-63
2023/09/16 09:11:58;;;;;;;0.60;0.60;;;37.00;73.50;;;;;;4899721;29;20474;-63
2023/09/16 09:14:26;;;;;;;0.60;0.60;;;37.40;73.10;;;;;;4899342;29;20247;-62
2023/09/16 09:16:55;;;;;;;0.50;0.50;;;37.90;69.90;;;;;;4899915;29;20403;-62
2023/09/16 09:19:21;;;;;;;0.70;0.70;;;38.30;69.70;;;;;;4899846;29;20433;-63
2023/09/16 09:21:47;;;;;;;0.90;0.90;;;38.40;69.60;;;;;;4899819;29;20977;-62
2023/09/16 09:24:13;;;;;;;0.53;0.53;;;38.00;67.90;;;;;;4898955;29;20186;-63
2023/09/16 09:26:39;;;;;;;0.70;0.70;;;38.00;68.70;;;;;;4899692;29;20852;-64
2023/09/16 09:29:09;;;;;;;0.60;0.60;;;38.40;67.10;;;;;;4899592;29;20654;-62
2023/09/16 09:31:36;;;;;;;0.63;0.63;;;38.10;66.90;;;;;;4899749;29;20261;-63
2023/09/16 09:34:02;;;;;;;0.63;0.63;;;38.30;66.40;;;;;;4899561;29;20770;-62
2023/09/16 09:36:32;;;;;;;0.97;0.93;;;38.40;66.40;;;;;;4898990;29;20506;-62
2023/09/16 09:38:58;;;;;;;0.50;0.50;;;38.00;66.40;;;;;;4899559;29;20265;-62
2023/09/16 09:41:23;;;;;;;0.70;0.70;;;37.80;67.10;;;;;;4899267;29;20518;-62
2023/09/16 09:43:53;;;;;;;0.40;0.40;;;37.90;65.80;;;;;;4898929;29;20175;-62
2023/09/16 09:46:20;;;;;;;0.60;0.60;;;37.80;64.50;;;;;;4899006;29;20648;-62
2023/09/16 09:48:46;;;;;;;0.43;0.43;;;37.60;65.10;;;;;;4898428;29;20971;-63
2023/09/16 09:51:19;;;;;;;0.60;0.60;;;37.40;64.80;;;;;;4898822;29;20420;-63
2023/09/16 09:53:46;;;;;;;0.60;0.60;;;37.40;64.00;;;;;;4898704;29;20403;-63
2023/09/16 09:56:12;;;;;;;0.70;0.70;;;37.20;64.90;;;;;;4899145;29;20506;-63
2023/09/16 09:58:37;;;;;;;0.50;0.50;;;37.20;64.00;;;;;;4898773;29;20583;-62
2023/09/16 10:01:03;;;;;;;0.73;0.70;;;37.40;64.50;;;;;;4898966;29;20258;-63
2023/09/16 10:03:28;;;;;;;0.40;0.40;;;37.60;63.80;;;;;;4898770;29;20230;-62
2023/09/16 10:05:58;;;;;;;0.40;0.40;;;37.80;63.60;;;;;;4898276;29;20696;-62
2023/09/16 10:08:24;;;;;;;0.50;0.50;;;38.00;63.30;;;;;;4898573;29;20187;-61
2023/09/16 10:10:52;;;;;;;0.47;0.47;;;38.00;62.80;;;;;;4898792;29;20427;-61
2023/09/16 10:13:18;;;;;;;0.67;0.67;;;37.70;63.20;;;;;;4898888;29;20502;-64
2023/09/16 10:15:44;;;;;;;0.40;0.40;;;37.50;63.90;;;;;;4898213;29;21028;-63
2023/09/16 10:18:12;;;;;;;0.70;0.70;;;37.20;64.40;;;;;;4898659;29;20522;-63
2023/09/16 10:20:39;;;;;;;0.40;0.40;;;37.30;63.80;;;;;;4898797;29;20786;-64
2023/09/16 10:23:06;;;;;;;0.80;0.67;;;37.50;63.80;;;;;;4898168;29;20443;-66
2023/09/16 10:25:33;;;;;;;0.53;0.50;;;37.70;61.30;;;;;;4897995;29;21005;-62
2023/09/16 10:28:02;;;;;;;0.40;0.40;;;37.30;62.90;;;;;;4898512;29;20961;-62
2023/09/16 10:30:30;;;;;;;0.60;0.60;;;37.00;63.00;;;;;;4898570;29;20796;-62
2023/09/16 10:33:02;;;;;;;0.50;0.50;;;36.90;62.40;;;;;;4898382;29;20419;-62
2023/09/16 10:35:29;;;;;;;0.40;0.40;;;36.70;63.20;;;;;;4898343;29;20458;-62
2023/09/16 10:37:59;;;;;;;0.90;0.60;;;36.70;62.90;;;;;;4898271;29;20795;-62
2023/09/16 10:40:25;;;;;;;0.50;0.50;;;36.90;61.90;;;;;;4898412;29;20439;-63
2023/09/16 10:42:53;;;;;;;0.50;0.50;;;36.90;61.80;;;;;;4898795;29;20431;-62
2023/09/16 10:45:19;;;;;;;0.43;0.43;;;36.70;62.70;;;;;;4896658;29;20474;-62
2023/09/16 10:47:46;;;;;;;0.40;0.40;;;36.60;62.20;;;;;;4898235;29;20518;-62
2023/09/16 10:50:12;;;;;;;0.50;0.50;;;36.40;63.10;;;;;;4898510;29;20834;-62
2023/09/16 10:52:53;;;;;;;0.40;0.40;;;36.10;63.10;;;;;;4898421;29;20506;-62
2023/09/16 10:55:51;;;;;;;0.53;0.53;;;36.00;64.00;;;;;;4897484;29;20210;-62
2023/09/16 10:58:36;;;;;;;0.30;0.30;;;35.90;64.60;;;;;;4899986;29;20440;-62
2023/09/16 11:01:02;;;;;;;0.30;0.30;;;35.80;64.40;;;;;;4900770;29;20452;-61
2023/09/16 11:03:30;;;;;;;0.30;0.30;;;35.60;66.40;;;;;;4902269;29;20449;-62
2023/09/16 11:06:01;;;;;;;0.37;0.37;;;35.20;66.60;;;;;;4901661;29;20289;-62
2023/09/16 11:08:27;;;;;;;0.30;0.30;;;34.30;67.50;;;;;;4902762;29;20418;-62
2023/09/16 11:10:58;;;;;;;0.97;0.83;;;33.50;68.60;;;;;;4901856;29;20519;-62
2023/09/16 11:13:26;;;;;;;0.30;0.30;;;32.60;70.60;;;;;;4902092;29;20866;-62
2023/09/16 11:15:51;;;;;;;1.23;0.73;;;32.00;72.20;;;;;;4901463;29;20513;-62
2023/09/16 11:18:18;;;;;;;0.30;0.30;;;31.40;71.10;;;;;;4900610;29;20510;-62
2023/09/16 11:20:45;;;;;;;0.30;0.20;;;30.90;72.80;;;;;;4902459;29;20507;-62
2023/09/16 11:23:12;;;;;;;0.30;0.30;;;30.50;75.60;;;;;;4901895;29;20393;-62
2023/09/16 11:25:40;;;;;;;0.40;0.40;;;30.10;77.20;;;;;;4899684;29;20461;-62
2023/09/16 11:28:18;;;;;;;0.30;0.30;;;29.80;79.00;;;;;;4901947;29;20778;-62
2023/09/16 11:31:01;;;;;;;0.30;0.20;;;29.60;80.30;;;;;;4901819;29;20427;-61
2023/09/16 11:33:32;;;;;;;0.50;0.50;;;29.30;80.30;;;;;;4901888;29;20412;-62
2023/09/16 11:36:15;;;;;;;0.30;0.20;;;29.10;78.50;;;;;;4901297;29;20502;-62
2023/09/16 11:38:53;;;;;;;0.50;0.40;;;28.80;80.10;;;;;;4901296;29;20430;-62
2023/09/16 11:41:19;;;;;;;0.30;0.30;;;28.60;82.40;;;;;;4901371;29;20484;-61
2023/09/16 11:43:45;;;;;;;0.30;0.27;;;28.50;83.30;;;;;;4901092;29;20506;-61
2023/09/16 11:46:12;;;;;;;0.30;0.30;;;28.40;84.10;;;;;;4901313;29;20213;-60
2023/09/16 11:48:52;;;;;;;0.30;0.20;;;28.30;84.10;;;;;;4901483;29;20182;-63
2023/09/16 11:51:18;;;;;;;0.53;0.40;;;28.30;83.10;;;;;;4901500;29;20418;-60
2023/09/16 11:53:45;;;;;;;0.30;0.30;;;28.20;82.70;;;;;;4900755;29;20404;-62
2023/09/16 11:56:12;;;;;;;0.30;0.30;;;28.20;83.20;;;;;;4901299;29;20417;-62
2023/09/16 11:58:42;;;;;;;0.30;0.30;;;28.10;83.70;;;;;;4901551;29;20893;-62
2023/09/16 12:01:18;;;;;;;0.30;0.20;;;28.10;81.60;;;;;;4901257;29;20426;-62
2023/09/16 12:03:44;;;;;;;0.30;0.20;;;28.00;82.20;;;;;;4900966;29;20424;-62
2023/09/16 12:06:11;;;;;;;0.30;0.30;;;28.00;82.80;;;;;;4900948;29;20561;-62
2023/09/16 12:08:40;;;;;;;0.30;0.30;;;28.10;84.40;;;;;;4900745;29;20523;-62
2023/09/16 12:11:06;;;;;;;0.40;0.40;;;28.10;84.20;;;;;;4901067;29;20759;-62
2023/09/16 12:13:32;;;;;;;0.30;0.30;;;28.10;84.00;;;;;;4900333;29;20391;-62
2023/09/16 12:15:58;;;;;;;0.30;0.20;;;28.20;83.50;;;;;;4900683;29;20449;-61
2023/09/16 12:18:24;;;;;;;0.40;0.30;;;28.20;82.70;;;;;;4900721;29;20427;-62
2023/09/16 12:20:52;;;;;;;0.30;0.20;;;28.20;81.00;;;;;;4901084;29;20419;-62
2023/09/16 12:23:18;;;;;;;0.30;0.20;;;28.30;79.90;;;;;;4900452;29;20411;-62
2023/09/16 12:25:44;;;;;;;0.30;0.27;;;28.20;79.70;;;;;;4900251;29;20467;-62
2023/09/16 12:28:11;;;;;;;0.30;0.20;;;28.10;79.10;;;;;;4900898;29;20514;-64
2023/09/16 12:30:43;;;;;;;0.30;0.20;;;28.10;77.10;;;;;;4900532;29;20738;-62
2023/09/16 12:33:10;;;;;;;0.67;0.67;;;28.10;78.20;;;;;;4899942;29;20447;-62
2023/09/16 12:35:42;;;;;;;0.30;0.20;;;28.20;76.70;;;;;;4899043;29;20921;-62
2023/09/16 12:38:07;;;;;;;0.30;0.30;;;28.20;75.70;;;;;;4899749;29;20780;-62
2023/09/16 12:40:34;;;;;;;0.30;0.20;;;28.20;77.20;;;;;;4900223;29;20444;-60
2023/09/16 12:43:00;;;;;;;0.33;0.33;;;28.30;80.30;;;;;;4900318;29;20550;-61
2023/09/16 12:45:28;;;;;;;0.30;0.30;;;28.30;81.40;;;;;;4899501;29;20494;-61
2023/09/16 12:47:55;;;;;;;0.30;0.20;;;28.30;79.20;;;;;;4900370;29;20479;-62
2023/09/16 12:50:21;;;;;;;0.90;0.60;;;28.30;79.00;;;;;;4900066;29;20819;-62
2023/09/16 12:52:48;;;;;;;0.30;0.23;;;28.30;78.20;;;;;;4899671;29;20414;-62
2023/09/16 12:55:15;;;;;;;0.30;0.30;;;28.30;77.00;;;;;;4899553;29;20442;-62
2023/09/16 12:57:42;;;;;;;0.30;0.20;;;28.40;76.70;;;;;;4899670;29;20785;-63
2023/09/16 13:00:15;;;;;;;0.30;0.30;;;28.40;77.10;;;;;;4899861;29;20445;-62
2023/09/16 13:02:41;;;;;;;0.30;0.20;;;28.50;76.50;;;;;;4900181;29;20722;-62
2023/09/16 13:05:18;;;;;;;0.30;0.20;;;28.50;76.80;;;;;;4899606;29;20532;-62
2023/09/16 13:07:50;;;;;;;0.30;0.30;;;28.50;76.70;;;;;;4899419;29;20427;-63
2023/09/16 13:10:17;;;;;;;0.30;0.20;;;28.50;77.70;;;;;;4899461;29;20938;-62
2023/09/16 13:12:44;;;;;;;0.30;0.20;;;28.50;77.00;;;;;;4895108;29;20426;-62
2023/09/16 13:15:21;;;;;;;0.30;0.30;;;28.50;76.90;;;;;;4897583;29;20437;-61
2023/09/16 13:17:49;;;;;;;0.30;0.20;;;28.50;77.40;;;;;;4891473;29;20918;-62
2023/09/16 13:20:18;;;;;;;0.37;0.27;;;28.50;76.50;;;;;;4898921;29;20427;-62
2023/09/16 13:22:45;;;;;;;0.30;0.27;;;28.50;77.50;;;;;;4895815;29;20411;-63
2023/09/16 13:25:36;;;;;;;0.30;0.27;;;28.50;77.90;;;;;;4892864;29;20449;-63
2023/09/16 13:28:09;;;;;;;0.30;0.30;;;28.60;77.30;;;;;;4899647;29;20393;-62
2023/09/16 13:30:36;;;;;;;0.50;0.40;;;28.60;79.10;;;;;;4899389;29;20468;-63
2023/09/16 13:33:05;;;;;;;0.30;0.20;;;28.60;78.10;;;;;;4898961;29;20453;-62
2023/09/16 13:35:31;;;;;;;0.40;0.40;;;28.50;77.50;;;;;;4897524;29;20491;-62
2023/09/16 13:37:57;;;;;;;0.30;0.20;;;28.50;78.30;;;;;;4898493;29;20452;-63
2023/09/16 13:40:23;;;;;;;0.30;0.20;;;28.50;78.10;;;;;;4899190;29;20412;-63
2023/09/16 13:42:48;;;;;;;0.70;0.70;;;28.50;78.20;;;;;;4898945;29;20336;-62
2023/09/16 13:45:14;;;;;;;0.30;0.20;;;28.60;78.00;;;;;;4898073;29;20476;-63
2023/09/16 13:47:40;;;;;;;0.30;0.30;;;28.80;77.70;;;;;;4898289;29;20529;-62
2023/09/16 13:50:06;;;;;;;0.30;0.20;;;28.80;76.80;;;;;;4898952;29;20192;-62
2023/09/16 13:52:31;;;;;;;0.30;0.30;;;28.90;77.30;;;;;;4898366;29;20193;-63
2023/09/16 13:54:57;;;;;;;0.40;0.40;;;28.90;77.90;;;;;;4898599;29;20433;-63
2023/09/16 13:57:23;;;;;;;0.30;0.30;;;28.90;77.90;;;;;;4881083;29;20194;-63
2023/09/16 13:59:49;;;;;;;0.50;0.50;;;28.90;78.00;;;;;;4893111;29;20244;-63
2023/09/16 14:02:14;;;;;;;0.30;0.30;;;28.80;78.90;;;;;;4896754;29;20198;-63
2023/09/16 14:04:40;;;;;;;0.30;0.30;;;28.70;78.90;;;;;;4895805;29;20429;-64
2023/09/16 14:07:06;;;;;;;0.30;0.20;;;28.60;79.10;;;;;;4895914;29;20565;-59
2023/09/16 14:09:31;;;;;;;0.40;0.30;;;28.50;79.00;;;;;;4897799;29;20273;-63
2023/09/16 14:11:57;;;;;;;0.30;0.30;;;28.50;78.40;;;;;;4898917;29;20186;-62
2023/09/16 14:14:22;;;;;;;0.30;0.27;;;28.40;79.60;;;;;;4906721;29;20625;-62
2023/09/16 14:16:48;;;;;;;0.30;0.30;;;28.40;79.50;;;;;;4898871;29;20209;-62
2023/09/16 14:19:15;;;;;;;0.30;0.20;;;28.40;79.80;;;;;;4897250;29;20194;-62
2023/09/16 14:21:41;;;;;;;0.30;0.30;;;28.50;80.20;;;;;;4898360;29;20210;-63
2023/09/16 14:24:07;;;;;;;0.30;0.20;;;28.50;80.20;;;;;;4897694;29;20408;-62
2023/09/16 14:26:34;;;;;;;0.57;0.40;;;28.60;80.50;;;;;;4898232;29;20547;-63
2023/09/16 14:29:00;;;;;;;0.40;0.30;;;28.70;80.50;;;;;;4898219;29;20197;-63
2023/09/16 14:31:25;;;;;;;0.30;0.30;;;28.90;79.10;;;;;;4895614;29;20927;-62
2023/09/16 14:33:51;;;;;;;0.30;0.30;;;29.10;80.50;;;;;;4897725;29;20232;-62
2023/09/16 14:36:16;;;;;;;0.30;0.30;;;29.20;78.50;;;;;;4898036;29;20654;-63
2023/09/16 14:38:42;;;;;;;0.77;0.40;;;29.20;78.60;;;;;;4898680;29;20586;-62
2023/09/16 14:41:08;;;;;;;0.30;0.30;;;29.20;79.10;;;;;;4897548;29;20190;-62
2023/09/16 14:43:34;;;;;;;0.30;0.23;;;29.30;79.30;;;;;;4897293;29;20190;-62
2023/09/16 14:46:00;;;;;;;0.30;0.30;;;29.30;78.80;;;;;;4900213;29;20218;-63
2023/09/16 14:48:26;;;;;;;0.33;0.33;;;29.40;79.00;;;;;;4897439;29;20889;-63
2023/09/16 14:50:55;;;;;;;0.30;0.20;;;29.30;78.90;;;;;;4897534;29;20186;-62
2023/09/16 14:53:20;;;;;;;0.30;0.20;;;29.20;79.20;;;;;;4888498;29;20642;-63
2023/09/16 14:55:48;;;;;;;0.70;0.70;;;29.10;79.60;;;;;;4897600;29;20519;-62
2023/09/16 14:58:14;;;;;;;0.53;0.53;;;28.90;79.30;;;;;;4897223;29;20185;-63
2023/09/16 15:00:40;;;;;;;0.30;0.20;;;28.80;79.50;;;;;;4897258;29;20406;-63
2023/09/16 15:03:06;;;;;;;0.40;0.33;;;28.80;78.80;;;;;;4897423;29;20435;-63
2023/09/16 15:05:31;;;;;;;0.30;0.30;;;28.60;78.50;;;;;;4896546;29;20561;-63
2023/09/16 15:07:57;;;;;;;0.30;0.20;;;28.60;80.00;;;;;;4897257;29;20202;-63
2023/09/16 15:10:22;;;;;;;0.30;0.27;;;28.70;80.00;;;;;;4897474;29;20202;-62
2023/09/16 15:12:48;;;;;;;0.30;0.20;;;28.70;79.90;;;;;;4896566;29;20253;-63
2023/09/16 15:15:14;;;;;;;0.40;0.40;;;28.80;79.90;;;;;;4909580;29;20211;-62
2023/09/16 15:17:39;;;;;;;0.40;0.30;;;28.80;79.60;;;;;;4897732;29;20186;-61
2023/09/16 15:20:05;;;;;;;0.30;0.20;;;28.80;79.20;;;;;;4897512;29;20181;-63
2023/09/16 15:22:32;;;;;;;0.40;0.40;;;28.80;79.00;;;;;;4898069;29;20222;-63
2023/09/16 15:24:57;;;;;;;0.60;0.50;;;28.80;79.10;;;;;;4894759;29;20493;-60
2023/09/16 15:27:23;;;;;;;0.40;0.40;;;28.80;79.20;;;;;;4889322;29;20766;-61
2023/09/16 15:29:50;;;;;;;0.30;0.30;;;28.80;79.10;;;;;;4878745;29;20186;-62
2023/09/16 15:32:16;;;;;;;0.60;0.47;;;28.90;79.10;;;;;;4885008;29;20180;-62
2023/09/16 15:34:41;;;;;;;0.30;0.23;;;28.90;78.90;;;;;;4878278;29;20778;-62
2023/09/16 15:37:08;;;;;;;0.30;0.30;;;28.90;79.60;;;;;;4879422;29;20411;-63
2023/09/16 15:39:34;;;;;;;0.30;0.20;;;28.90;79.00;;;;;;4891810;29;20183;-62
2023/09/16 15:42:00;;;;;;;0.30;0.30;;;28.80;78.80;;;;;;4896998;29;20489;-62
2023/09/16 15:44:26;;;;;;;0.50;0.50;;;28.80;79.30;;;;;;4896829;29;20429;-62
2023/09/16 15:46:53;;;;;;;0.30;0.20;;;28.80;79.10;;;;;;4897613;29;20416;-62
2023/09/16 15:49:19;;;;;;;0.30;0.20;;;28.70;78.70;;;;;;4901355;29;20266;-62
2023/09/16 15:51:45;;;;;;;0.30;0.30;;;28.70;78.90;;;;;;4900465;29;20891;-62
2023/09/16 15:54:11;;;;;;;0.30;0.30;;;28.70;79.20;;;;;;4900515;29;20487;-62
2023/09/16 15:56:37;;;;;;;0.30;0.20;;;28.70;78.90;;;;;;4893937;29;20709;-62
2023/09/16 15:59:02;;;;;;;0.30;0.20;;;28.60;78.90;;;;;;4897942;29;20393;-62
2023/09/16 16:01:28;;;;;;;0.30;0.20;;;28.50;79.10;;;;;;4900750;29;20693;-62
2023/09/16 16:03:54;;;;;;;0.40;0.40;;;28.50;79.10;;;;;;4900599;29;20265;-62
2023/09/16 16:06:23;;;;;;;0.30;0.20;;;28.40;78.90;;;;;;4899564;29;20214;-63
2023/09/16 16:08:49;;;;;;;0.30;0.30;;;28.40;79.50;;;;;;4904956;29;20594;-63
2023/09/16 16:11:15;;;;;;;0.30;0.20;;;28.30;79.60;;;;;;4900361;29;20434;-65
2023/09/16 16:13:40;;;;;;;0.30;0.30;;;28.30;80.30;;;;;;4900060;29;20294;-63
2023/09/16 16:16:08;;;;;;;0.30;0.30;;;28.20;80.80;;;;;;4900242;29;20540;-62
2023/09/16 16:18:34;;;;;;;0.30;0.30;;;28.20;81.10;;;;;;4900202;29;20180;-62
2023/09/16 16:21:00;;;;;;;0.30;0.20;;;28.10;81.60;;;;;;4899728;29;20951;-62
2023/09/16 16:23:26;;;;;;;0.30;0.30;;;28.00;82.40;;;;;;4900325;29;20230;-62
2023/09/16 16:25:52;;;;;;;0.50;0.40;;;28.00;82.20;;;;;;4899837;29;20237;-63
2023/09/16 16:28:18;;;;;;;0.30;0.20;;;27.90;82.90;;;;;;4898630;29;20433;-62
2023/09/16 16:30:43;;;;;;;0.30;0.20;;;27.80;81.90;;;;;;4899979;29;20534;-63
2023/09/16 16:33:09;;;;;;;0.30;0.20;;;27.80;82.10;;;;;;4899398;29;20187;-62
2023/09/16 16:35:35;;;;;;;0.30;0.30;;;27.70;82.20;;;;;;4899191;29;20706;-62
2023/09/16 16:38:01;;;;;;;0.30;0.20;;;27.70;82.70;;;;;;4899339;29;20198;-62
2023/09/16 16:40:27;;;;;;;0.50;0.40;;;27.60;83.00;;;;;;4900108;29;20432;-62
2023/09/16 16:42:52;;;;;;;0.30;0.30;;;27.60;83.70;;;;;;4899343;29;20458;-62
2023/09/16 16:45:18;;;;;;;0.30;0.20;;;27.60;83.50;;;;;;4899283;29;20713;-62
2023/09/16 16:47:45;;;;;;;0.30;0.20;;;27.50;84.10;;;;;;4899594;29;20591;-62
2023/09/16 16:50:11;;;;;;;0.30;0.23;;;27.50;84.40;;;;;;4899036;29;20545;-61